Hlavní strana
METAR-TAF:

METAR-TAF

Letiště :

Záporoží, Ukrajina

zeměpisná šířka: 47-52-02N, zeměpisná délka: 035-18-59E, výška: 114 m

Aktuální stav počasí

Zpráva byla vytvořena před 27 minutami, v 02:00 UTC
Severovýchodní vítr 6 kt, proměnlivý mezi severoseverovýchodním a východním
Teplota 10°C
Vlhkost vzduchu 66%
Tlak 1019 hPa
Viditelnost 10 km a více
Žádná oblačnost pod 1500 m, nevyskytují se cumulonimby.

METAR: UKDE 190200Z 05003MPS 030V090 CAVOK 10/04 Q1019 R02R/CLRD70 NOSIG

Čas: 05:27 (02:27 UTC)

Předpověď počasí

Zpráva byla vytvořena před 3 hodinami a 25 minutami, v 23:02 UTC
Předpověď platná od 19 v 00 UTC do 19 v 09 UTC
Východoseverovýchodní vítr 6 kt
Viditelnost 10 km a více
Polojasno ve výšce 4000 ft
Pravděpodobnost 40% :
Dočasný
od 19 v 00 UTC do 19 v 03 UTC
Viditelnost: 0300 m
ve výšce 200 ft
mlha

TAF: UKDE 182302Z 1900/1909 07003MPS 9999 SCT040 PROB40 TEMPO 1900/1903 0300 FG VV002

Stav a předpovědi počasí z více než 4 000 letišť (zprávy METAR a TAF).

Červené a žluté tečky na mapě představují dostupné meteorologické stanice.

Když kurzor umístíte na tečku, zobrazí se název stanice.

Pak kliknutím zobrazíte stav a předpověď počasí.

Chcete-li změnit mapu, kliknutím na zelené tlačítko se znaménkem +mapu přiblížíte, kliknutím na zelené tlačítko se znaménkem – mapu oddálíte a kliknutím na zelené šipky přejdete na sousední mapy.


METAR-TAF: